Time;durP1;ratioP1;P1;durP2;ratioP2;P2;SDS_P1;SDS_P2;PMS_P1;PMS_P2;Temp;Humidity;BMP_temperature;BMP_pressure;BME280_temperature;BME280_humidity;BME280_pressure;Samples;Min_cycle;Max_cycle;Signal;HPM_P1;HPM_P2
2023/04/28 00:00:30;;;;;;;9.83;4.00;;;12.70;55.70;;;;;;6127968;23;20564;-72
2023/04/28 00:02:55;;;;;;;11.50;4.67;;;12.70;55.80;;;;;;6128484;23;20136;-71
2023/04/28 00:05:21;;;;;;;7.23;4.30;;;12.80;56.00;;;;;;6128093;23;20214;-72
2023/04/28 00:07:47;;;;;;;8.20;4.23;;;12.70;56.30;;;;;;6128571;23;20151;-70
2023/04/28 00:10:13;;;;;;;4.67;3.47;;;12.70;56.60;;;;;;6128602;23;20796;-73
2023/04/28 00:12:39;;;;;;;5.33;4.10;;;12.70;57.00;;;;;;6129448;23;20633;-73
2023/04/28 00:15:05;;;;;;;4.30;3.37;;;12.70;57.30;;;;;;6133644;23;20239;-71
2023/04/28 00:17:30;;;;;;;5.47;3.63;;;12.60;57.60;;;;;;6128436;23;20228;-73
2023/04/28 00:19:56;;;;;;;6.57;4.17;;;12.60;57.80;;;;;;6127308;23;20246;-70
2023/04/28 00:22:22;;;;;;;7.00;4.00;;;12.60;58.70;;;;;;6128537;23;20490;-70
2023/04/28 00:24:47;;;;;;;6.70;4.13;;;12.60;58.20;;;;;;6128192;23;20340;-71
2023/04/28 00:27:13;;;;;;;4.87;3.80;;;12.60;58.20;;;;;;6128260;23;20144;-72
2023/04/28 00:29:39;;;;;;;5.90;3.70;;;12.60;58.70;;;;;;6127988;23;20164;-72
2023/04/28 00:32:04;;;;;;;7.73;4.30;;;12.60;59.10;;;;;;6129229;23;20128;-71
2023/04/28 00:34:36;;;;;;;7.80;4.20;;;12.50;59.30;;;;;;6128328;23;20546;-72
2023/04/28 00:37:02;;;;;;;7.33;3.87;;;12.60;59.40;;;;;;6128700;23;20164;-71
2023/04/28 00:39:28;;;;;;;6.47;4.40;;;12.50;59.40;;;;;;6127476;23;20415;-75
2023/04/28 00:41:54;;;;;;;5.83;2.90;;;12.60;59.40;;;;;;6128685;23;20399;-72
2023/04/28 00:44:20;;;;;;;6.50;3.30;;;12.60;59.40;;;;;;6127089;23;20136;-73
2023/04/28 00:46:46;;;;;;;5.67;3.40;;;12.60;59.60;;;;;;6128561;23;20132;-74
2023/04/28 00:49:14;;;;;;;7.27;3.97;;;12.50;59.90;;;;;;6128027;23;20681;-70
2023/04/28 00:51:40;;;;;;;10.87;4.53;;;12.60;59.80;;;;;;6129100;23;20555;-71
2023/04/28 00:54:06;;;;;;;4.83;3.63;;;12.50;59.80;;;;;;6102538;23;20860;-72
2023/04/28 00:56:33;;;;;;;5.40;3.90;;;12.60;59.90;;;;;;6102019;23;20184;-72
2023/04/28 00:58:58;;;;;;;7.93;4.07;;;12.50;59.90;;;;;;6127095;23;20219;-71
2023/04/28 01:01:24;;;;;;;9.37;3.90;;;12.60;59.90;;;;;;6102528;23;20769;-73
2023/04/28 01:03:51;;;;;;;6.93;3.80;;;12.60;60.60;;;;;;6128667;23;20470;-72
2023/04/28 01:06:19;;;;;;;4.97;3.90;;;12.50;59.70;;;;;;6102717;23;20596;-72
2023/04/28 01:08:47;;;;;;;6.17;3.80;;;12.50;60.00;;;;;;6102152;23;20384;-73
2023/04/28 01:11:15;;;;;;;6.33;3.80;;;12.50;61.00;;;;;;6102487;23;20378;-71
2023/04/28 01:13:59;;;;;;;4.20;3.80;;;12.40;63.40;;;;;;6128351;23;20363;-72
2023/04/28 01:16:27;;;;;;;8.20;4.80;;;12.20;70.20;;;;;;6102601;23;20419;-72
2023/04/28 01:18:53;;;;;;;8.20;4.40;;;12.10;75.60;;;;;;6128077;23;20391;-71
2023/04/28 01:21:32;;;;;;;8.13;3.73;;;11.90;78.10;;;;;;6102242;23;20396;-71
2023/04/28 01:24:00;;;;;;;6.10;4.77;;;11.80;83.40;;;;;;6128891;23;20377;-72
2023/04/28 01:26:27;;;;;;;6.73;3.50;;;11.60;86.20;;;;;;6102131;23;20823;-72
2023/04/28 01:28:52;;;;;;;6.50;4.20;;;11.60;89.70;;;;;;6128446;23;20427;-71
2023/04/28 01:31:19;;;;;;;6.40;3.67;;;11.50;91.30;;;;;;6128838;23;20187;-72
2023/04/28 01:33:44;;;;;;;5.87;4.40;;;11.30;92.30;;;;;;6130039;23;20776;-69
2023/04/28 01:36:10;;;;;;;7.20;3.77;;;11.30;93.90;;;;;;6129979;23;20407;-72
2023/04/28 01:38:36;;;;;;;5.57;4.40;;;11.30;94.70;;;;;;6128300;23;20171;-71
2023/04/28 01:41:01;;;;;;;8.10;5.17;;;11.30;96.00;;;;;;6129536;23;20180;-72
2023/04/28 01:43:27;;;;;;;6.10;4.10;;;11.20;96.80;;;;;;6132009;23;20136;-71
2023/04/28 01:45:53;;;;;;;5.70;4.70;;;11.20;97.30;;;;;;6130136;23;20367;-71
2023/04/28 01:48:18;;;;;;;7.13;4.60;;;11.20;97.80;;;;;;6129730;23;20368;-72
2023/04/28 01:50:45;;;;;;;8.23;5.00;;;11.20;98.70;;;;;;6103915;23;20199;-71
2023/04/28 01:53:11;;;;;;;5.10;3.90;;;11.20;99.30;;;;;;6129809;23;20370;-70
2023/04/28 01:55:38;;;;;;;7.57;4.53;;;11.20;99.10;;;;;;6103899;23;20246;-71
2023/04/28 01:58:04;;;;;;;6.20;4.73;;;11.20;99.90;;;;;;6103662;23;20378;-71
2023/04/28 02:00:30;;;;;;;6.07;4.37;;;11.20;99.90;;;;;;6105585;23;20423;-72
2023/04/28 02:02:55;;;;;;;9.90;4.93;;;11.10;99.90;;;;;;6105029;23;20860;-71
2023/04/28 02:05:21;;;;;;;7.27;3.83;;;11.10;99.90;;;;;;6131150;23;20147;-69
2023/04/28 02:07:48;;;;;;;7.10;4.20;;;11.10;99.90;;;;;;6104871;23;20275;-73
2023/04/28 02:10:14;;;;;;;8.13;4.17;;;11.10;99.90;;;;;;6130437;23;20669;-70
2023/04/28 02:12:41;;;;;;;6.97;4.63;;;11.20;99.90;;;;;;6129946;23;20167;-69
2023/04/28 02:15:07;;;;;;;4.97;4.00;;;11.20;99.90;;;;;;6131642;23;20176;-72
2023/04/28 02:17:33;;;;;;;5.23;3.87;;;11.20;99.90;;;;;;6130182;23;20371;-73
2023/04/28 02:19:59;;;;;;;9.60;5.07;;;11.30;99.90;;;;;;6103614;23;20470;-71
2023/04/28 02:22:25;;;;;;;8.13;4.30;;;11.40;99.90;;;;;;6103727;23;20144;-69
2023/04/28 02:24:51;;;;;;;5.43;3.73;;;11.40;99.90;;;;;;6103960;23;20418;-71
2023/04/28 02:27:17;;;;;;;5.17;3.80;;;11.40;99.80;;;;;;6128784;23;20159;-70
2023/04/28 02:29:42;;;;;;;6.90;4.20;;;11.40;99.90;;;;;;6102631;23;20518;-72
2023/04/28 02:32:08;;;;;;;7.47;5.20;;;11.40;99.80;;;;;;6129617;23;20140;-69
2023/04/28 02:34:33;;;;;;;6.27;4.87;;;11.40;99.90;;;;;;6129003;23;20137;-72
2023/04/28 02:37:00;;;;;;;4.30;3.83;;;11.40;99.40;;;;;;6103476;23;20258;-71
2023/04/28 02:39:26;;;;;;;6.63;4.80;;;11.40;99.80;;;;;;6128226;23;20447;-70
2023/04/28 02:41:55;;;;;;;8.10;5.20;;;11.50;99.90;;;;;;6103660;23;20503;-72
2023/04/28 02:44:22;;;;;;;16.03;6.97;;;11.50;99.90;;;;;;6103445;23;20467;-71
2023/04/28 02:46:48;;;;;;;9.13;5.33;;;11.60;99.90;;;;;;6128794;23;20355;-69
2023/04/28 02:49:15;;;;;;;6.53;5.40;;;11.60;99.90;;;;;;6131246;23;20407;-74
2023/04/28 02:51:41;;;;;;;8.93;5.57;;;11.70;99.60;;;;;;6105104;23;20203;-73
2023/04/28 02:54:07;;;;;;;6.43;4.77;;;11.60;99.90;;;;;;6104850;23;20443;-72
2023/04/28 02:56:34;;;;;;;7.10;5.50;;;11.50;99.90;;;;;;6128868;23;20172;-71
2023/04/28 02:59:02;;;;;;;7.13;4.80;;;11.50;99.90;;;;;;6106989;23;20179;-71
2023/04/28 03:01:28;;;;;;;7.33;4.47;;;11.40;99.90;;;;;;6109462;23;20409;-70
2023/04/28 03:03:53;;;;;;;4.40;4.00;;;11.30;99.90;;;;;;6130134;23;20663;-71
2023/04/28 03:06:19;;;;;;;6.80;5.30;;;11.30;99.90;;;;;;6128899;23;20136;-72
2023/04/28 03:08:45;;;;;;;6.83;5.27;;;11.30;99.90;;;;;;6103003;23;20136;-71
2023/04/28 03:11:11;;;;;;;6.03;4.50;;;11.20;99.90;;;;;;6103427;23;20180;-71
2023/04/28 03:13:37;;;;;;;7.60;5.40;;;11.20;99.90;;;;;;6129121;23;20372;-71
2023/04/28 03:16:03;;;;;;;5.90;4.93;;;11.20;99.90;;;;;;6102945;23;20714;-72
2023/04/28 03:18:29;;;;;;;6.63;4.50;;;11.20;99.90;;;;;;6102417;23;20387;-73
2023/04/28 03:20:55;;;;;;;8.80;5.17;;;11.10;99.90;;;;;;6102999;23;20400;-71
2023/04/28 03:23:20;;;;;;;5.90;4.77;;;11.10;99.90;;;;;;6103593;23;20376;-71
2023/04/28 03:25:46;;;;;;;7.20;4.80;;;11.00;99.90;;;;;;6103096;23;20211;-71
2023/04/28 03:28:11;;;;;;;8.37;4.20;;;11.00;99.90;;;;;;6102192;23;20208;-70
2023/04/28 03:30:38;;;;;;;6.40;4.67;;;11.00;99.90;;;;;;6102477;23;20247;-71
2023/04/28 03:33:04;;;;;;;8.00;5.50;;;10.90;99.90;;;;;;6128578;23;20364;-71
2023/04/28 03:35:29;;;;;;;8.30;5.57;;;11.00;99.90;;;;;;6127185;23;20160;-73
2023/04/28 03:37:55;;;;;;;9.30;5.37;;;11.00;99.90;;;;;;6103114;23;20411;-71
2023/04/28 03:40:20;;;;;;;8.93;3.73;;;10.90;99.90;;;;;;6102896;23;20264;-72
2023/04/28 03:43:13;;;;;;;8.10;5.57;;;10.90;99.90;;;;;;6124409;23;20154;-73
2023/04/28 03:45:45;;;;;;;8.17;5.97;;;10.90;99.90;;;;;;6104256;23;20484;-72
2023/04/28 03:48:11;;;;;;;8.53;6.13;;;11.00;99.90;;;;;;6131556;23;20376;-69
2023/04/28 03:50:38;;;;;;;7.30;5.87;;;11.00;99.90;;;;;;6102351;23;20391;-72
2023/04/28 03:53:04;;;;;;;9.27;7.03;;;10.90;99.90;;;;;;6127087;23;20211;-71
2023/04/28 03:55:30;;;;;;;8.20;6.70;;;10.80;99.90;;;;;;6103145;23;20451;-71
2023/04/28 03:57:56;;;;;;;8.57;6.50;;;10.70;99.90;;;;;;6127994;23;20358;-70
2023/04/28 04:00:22;;;;;;;10.63;6.40;;;10.70;99.90;;;;;;6106179;23;20179;-71
2023/04/28 04:02:50;;;;;;;14.63;6.97;;;10.60;99.90;;;;;;6102788;23;20159;-70
2023/04/28 04:05:16;;;;;;;7.40;5.60;;;10.60;99.90;;;;;;6102060;23;20379;-70
2023/04/28 04:07:42;;;;;;;8.73;5.70;;;10.50;99.90;;;;;;6101972;23;20155;-71
2023/04/28 04:10:08;;;;;;;10.43;6.40;;;10.60;99.90;;;;;;6128014;23;20253;-72
2023/04/28 04:12:35;;;;;;;10.50;5.93;;;10.50;99.90;;;;;;6127246;23;20148;-71
2023/04/28 04:15:02;;;;;;;8.37;6.60;;;10.50;99.90;;;;;;6127502;23;20394;-72
2023/04/28 04:17:28;;;;;;;11.23;6.30;;;10.60;99.90;;;;;;6102643;23;20180;-74
2023/04/28 04:19:53;;;;;;;10.70;5.90;;;10.70;99.90;;;;;;6101764;23;20909;-72
2023/04/28 04:22:19;;;;;;;13.80;6.67;;;10.80;99.90;;;;;;6128161;23;20176;-70
2023/04/28 04:24:45;;;;;;;7.33;6.47;;;10.80;99.90;;;;;;6128047;23;20410;-70
2023/04/28 04:27:11;;;;;;;8.27;4.97;;;10.70;99.90;;;;;;6102334;23;20521;-70
2023/04/28 04:29:39;;;;;;;10.70;5.80;;;10.70;99.90;;;;;;6125211;23;20487;-72
2023/04/28 04:32:10;;;;;;;8.03;5.60;;;10.70;99.90;;;;;;6128083;23;20596;-70
2023/04/28 04:34:37;;;;;;;14.57;7.73;;;10.70;99.90;;;;;;6102462;23;20411;-70
2023/04/28 04:37:02;;;;;;;8.83;6.13;;;10.70;99.90;;;;;;6101573;23;20482;-76
2023/04/28 04:39:31;;;;;;;9.27;5.50;;;10.80;99.90;;;;;;6101240;23;20574;-72
2023/04/28 04:41:56;;;;;;;8.40;5.33;;;10.70;99.90;;;;;;6102388;23;20376;-73
2023/04/28 04:44:42;;;;;;;8.80;6.37;;;10.80;99.90;;;;;;6127789;23;20203;-74
2023/04/28 04:47:15;;;;;;;11.27;6.10;;;10.70;99.90;;;;;;6126943;23;20479;-72
2023/04/28 04:49:40;;;;;;;11.40;6.43;;;10.70;99.90;;;;;;6102617;23;20407;-72
2023/04/28 04:52:07;;;;;;;10.27;5.83;;;10.80;99.90;;;;;;6126994;23;20148;-73
2023/04/28 04:54:32;;;;;;;8.93;5.87;;;10.80;99.90;;;;;;6126602;23;20196;-73
2023/04/28 04:56:58;;;;;;;7.63;6.10;;;10.70;99.90;;;;;;6101640;23;20487;-73
2023/04/28 04:59:42;;;;;;;9.67;6.80;;;10.80;99.90;;;;;;6127800;23;20482;-71
2023/04/28 05:02:12;;;;;;;10.10;6.10;;;10.80;99.90;;;;;;6113069;23;20364;-74
2023/04/28 05:04:38;;;;;;;12.87;6.90;;;10.90;99.90;;;;;;6120658;23;20424;-74
2023/04/28 05:07:04;;;;;;;8.43;6.80;;;10.90;99.90;;;;;;6146237;23;20174;-73
2023/04/28 05:09:31;;;;;;;7.83;6.70;;;10.90;99.90;;;;;;6121181;23;20501;-71
2023/04/28 05:11:58;;;;;;;12.23;7.50;;;10.90;99.90;;;;;;6117444;23;20380;-73
2023/04/28 05:14:24;;;;;;;7.17;5.30;;;10.90;99.90;;;;;;6112937;23;20459;-72
2023/04/28 05:16:50;;;;;;;8.77;6.80;;;10.90;99.90;;;;;;6139034;23;20179;-72
2023/04/28 05:19:23;;;;;;;7.87;4.87;;;10.90;99.90;;;;;;6089475;23;20404;-70
2023/04/28 05:21:51;;;;;;;6.23;5.60;;;11.00;99.90;;;;;;6137326;23;20430;-71
2023/04/28 05:24:16;;;;;;;9.40;6.80;;;11.00;99.90;;;;;;6137497;23;20179;-74
2023/04/28 05:26:42;;;;;;;10.00;6.30;;;11.10;99.90;;;;;;6091959;23;20407;-75
2023/04/28 05:29:09;;;;;;;9.00;6.73;;;11.10;99.90;;;;;;6118193;23;20167;-73
2023/04/28 05:31:35;;;;;;;8.20;5.97;;;11.10;99.90;;;;;;6116497;23;20514;-72
2023/04/28 05:34:00;;;;;;;10.27;6.53;;;11.10;99.90;;;;;;6121282;23;20148;-75
2023/04/28 05:36:26;;;;;;;10.53;6.00;;;11.10;99.90;;;;;;6117181;23;20183;-72
2023/04/28 05:38:52;;;;;;;8.10;6.00;;;11.20;99.90;;;;;;6116071;23;20179;-73
2023/04/28 05:41:18;;;;;;;6.43;5.47;;;11.10;99.90;;;;;;6113866;23;20415;-76
2023/04/28 05:43:45;;;;;;;10.57;7.30;;;11.10;99.90;;;;;;6113863;23;20438;-74
2023/04/28 05:46:10;;;;;;;10.77;6.60;;;11.10;99.90;;;;;;6113410;23;20148;-75
2023/04/28 05:48:36;;;;;;;7.97;5.90;;;11.10;99.90;;;;;;6114277;23;20387;-74
2023/04/28 05:51:02;;;;;;;9.23;6.93;;;11.10;99.90;;;;;;6114016;23;20208;-76
2023/04/28 05:53:27;;;;;;;9.93;6.40;;;11.00;99.90;;;;;;6143374;23;20159;-74
2023/04/28 05:55:53;;;;;;;6.87;5.70;;;10.90;99.90;;;;;;6138630;23;20183;-73
2023/04/28 05:58:19;;;;;;;9.90;7.40;;;10.90;99.90;;;;;;6089237;23;20144;-71
2023/04/28 06:00:45;;;;;;;9.30;7.23;;;10.80;99.90;;;;;;6137352;23;20405;-72
2023/04/28 06:03:13;;;;;;;7.70;6.43;;;10.90;99.90;;;;;;6138060;23;20195;-75
2023/04/28 06:05:39;;;;;;;10.70;6.80;;;11.00;99.90;;;;;;6114506;23;20171;-73
2023/04/28 06:08:06;;;;;;;7.20;6.07;;;11.00;99.90;;;;;;6116721;23;20804;-74
2023/04/28 06:10:32;;;;;;;8.00;6.30;;;11.10;99.90;;;;;;6114914;23;20407;-74
2023/04/28 06:12:58;;;;;;;7.70;6.57;;;11.10;99.90;;;;;;6113762;23;20387;-73
2023/04/28 06:15:23;;;;;;;10.90;6.17;;;11.10;99.90;;;;;;6112488;23;20171;-74
2023/04/28 06:17:50;;;;;;;7.90;6.67;;;11.20;99.90;;;;;;6114989;23;20178;-75
2023/04/28 06:20:16;;;;;;;10.70;7.63;;;11.20;99.90;;;;;;6140120;23;20167;-71
2023/04/28 06:22:42;;;;;;;8.60;6.50;;;11.10;99.90;;;;;;6112780;23;20404;-74
2023/04/28 06:25:08;;;;;;;10.23;7.93;;;11.20;99.90;;;;;;6113579;23;20813;-75
2023/04/28 06:27:40;;;;;;;8.23;6.83;;;11.20;99.90;;;;;;6111971;23;20827;-74
2023/04/28 06:30:07;;;;;;;9.40;6.60;;;11.20;99.90;;;;;;6113587;23;20464;-73
2023/04/28 06:32:32;;;;;;;8.70;5.80;;;11.20;99.90;;;;;;6113981;23;20518;-76
2023/04/28 06:34:58;;;;;;;7.90;7.00;;;11.20;99.90;;;;;;6112754;23;20375;-77
2023/04/28 06:37:24;;;;;;;11.90;7.37;;;11.30;99.90;;;;;;6111248;23;20140;-74
2023/04/28 06:39:50;;;;;;;8.93;6.47;;;11.30;99.90;;;;;;6113852;23;20462;-75
2023/04/28 06:42:17;;;;;;;6.83;6.20;;;11.40;99.90;;;;;;6115856;23;20156;-73
2023/04/28 06:44:50;;;;;;;13.43;5.70;;;11.50;99.90;;;;;;6138376;23;20209;-74
2023/04/28 06:47:15;;;;;;;10.70;6.80;;;11.60;99.90;;;;;;6114571;23;20384;-73
2023/04/28 06:49:43;;;;;;;9.80;6.30;;;11.70;99.90;;;;;;6090441;23;20245;-73
2023/04/28 06:52:08;;;;;;;9.87;7.00;;;11.80;99.90;;;;;;6138075;23;20207;-74
2023/04/28 06:54:34;;;;;;;11.33;6.40;;;11.90;99.90;;;;;;6112463;23;20832;-74
2023/04/28 06:57:01;;;;;;;7.43;6.63;;;12.00;99.90;;;;;;6113682;23;20411;-75
2023/04/28 06:59:26;;;;;;;7.87;5.80;;;12.20;99.90;;;;;;6113331;23;20167;-74
2023/04/28 07:01:52;;;;;;;7.30;6.60;;;12.30;99.90;;;;;;6114909;23;20439;-73
2023/04/28 07:04:17;;;;;;;13.07;5.70;;;12.50;99.90;;;;;;6114526;23;20229;-75
2023/04/28 07:06:43;;;;;;;8.53;6.90;;;12.60;99.90;;;;;;6113459;23;20182;-74
2023/04/28 07:09:09;;;;;;;10.63;7.17;;;12.70;99.90;;;;;;6115404;23;20184;-74
2023/04/28 07:11:35;;;;;;;7.73;6.43;;;12.70;99.90;;;;;;6143068;23;20187;-75
2023/04/28 07:14:00;;;;;;;8.10;5.67;;;12.70;99.90;;;;;;6112294;23;20462;-76
2023/04/28 07:16:26;;;;;;;11.00;5.20;;;12.70;99.90;;;;;;6114808;23;20194;-73
2023/04/28 07:18:52;;;;;;;12.53;6.50;;;12.70;99.90;;;;;;6119116;23;20549;-76
2023/04/28 07:21:18;;;;;;;7.10;5.80;;;12.70;99.90;;;;;;6118287;23;20463;-76
2023/04/28 07:23:44;;;;;;;7.30;6.43;;;12.70;99.90;;;;;;6115276;23;20150;-77
2023/04/28 07:26:10;;;;;;;9.00;6.13;;;12.60;99.90;;;;;;6094660;23;20875;-75
2023/04/28 07:28:36;;;;;;;8.80;6.93;;;12.60;99.90;;;;;;6144854;23;20368;-75
2023/04/28 07:31:02;;;;;;;7.00;5.60;;;12.60;99.90;;;;;;6121624;23;20147;-75
2023/04/28 07:33:27;;;;;;;15.57;8.00;;;12.50;99.90;;;;;;6121163;23;20435;-76
2023/04/28 07:35:53;;;;;;;8.43;5.20;;;12.50;99.90;;;;;;6143854;23;20164;-76
2023/04/28 07:38:19;;;;;;;7.97;6.23;;;12.60;99.90;;;;;;6117653;23;20168;-76
2023/04/28 07:40:45;;;;;;;7.50;5.53;;;12.70;99.90;;;;;;6141333;23;20196;-78
2023/04/28 07:43:11;;;;;;;10.23;7.30;;;12.80;99.90;;;;;;6120255;23;20422;-75
2023/04/28 07:45:40;;;;;;;11.40;7.07;;;13.00;99.90;;;;;;6120361;23;20379;-77
2023/04/28 07:48:06;;;;;;;9.97;6.83;;;13.20;99.90;;;;;;6120727;23;20719;-75
2023/04/28 07:50:32;;;;;;;6.90;6.20;;;13.50;99.90;;;;;;6121162;23;20395;-76
2023/04/28 07:52:58;;;;;;;9.57;6.37;;;13.80;99.90;;;;;;6118636;23;20495;-74
2023/04/28 07:55:24;;;;;;;9.17;7.20;;;14.00;99.90;;;;;;6094557;23;20511;-77
2023/04/28 07:57:50;;;;;;;7.90;5.90;;;14.20;99.90;;;;;;6120020;23;20157;-76
2023/04/28 08:00:16;;;;;;;6.20;5.60;;;14.30;99.90;;;;;;6117813;23;20400;-76
2023/04/28 08:02:42;;;;;;;6.93;5.67;;;14.40;99.90;;;;;;6144667;23;20125;-76
2023/04/28 08:05:08;;;;;;;6.93;5.87;;;14.50;99.90;;;;;;6119004;23;20369;-76
2023/04/28 08:07:35;;;;;;;8.00;6.20;;;14.70;99.90;;;;;;6092775;23;20156;-74
2023/04/28 08:10:02;;;;;;;7.43;6.30;;;15.00;99.90;;;;;;6116364;23;20410;-75
2023/04/28 08:12:28;;;;;;;6.50;5.90;;;15.20;97.70;;;;;;6116559;23;20379;-74
2023/04/28 08:14:54;;;;;;;7.27;6.43;;;15.30;98.20;;;;;;6115641;23;20429;-75
2023/04/28 08:17:19;;;;;;;8.07;6.20;;;15.60;97.80;;;;;;6114976;23;20136;-75
2023/04/28 08:19:45;;;;;;;10.77;7.60;;;16.00;95.50;;;;;;6091113;23;20172;-75
2023/04/28 08:22:12;;;;;;;6.00;5.50;;;16.30;91.10;;;;;;6141503;23;20136;-76
2023/04/28 08:24:38;;;;;;;6.57;5.60;;;16.40;93.00;;;;;;6115512;23;20368;-76
2023/04/28 08:27:04;;;;;;;5.40;4.90;;;16.30;91.10;;;;;;6117551;23;20382;-76
2023/04/28 08:29:30;;;;;;;9.43;6.20;;;16.10;92.80;;;;;;6116456;23;20172;-74
2023/04/28 08:31:57;;;;;;;6.97;5.10;;;15.90;93.80;;;;;;6115265;23;20374;-74
2023/04/28 08:34:23;;;;;;;8.03;6.60;;;15.90;95.70;;;;;;6115339;23;20471;-75
2023/04/28 08:36:50;;;;;;;9.90;6.63;;;16.00;93.30;;;;;;6115328;23;20458;-76
2023/04/28 08:39:16;;;;;;;8.03;6.90;;;16.10;93.70;;;;;;6091679;23;20824;-76
2023/04/28 08:41:42;;;;;;;11.97;6.67;;;16.10;92.20;;;;;;6140921;23;20387;-74
2023/04/28 08:44:09;;;;;;;9.13;6.13;;;16.10;93.60;;;;;;6115418;23;20377;-75
2023/04/28 08:46:35;;;;;;;8.60;6.47;;;16.00;93.80;;;;;;6115864;23;20151;-74
2023/04/28 08:49:03;;;;;;;11.63;7.33;;;15.90;95.00;;;;;;6139995;23;20383;-74
2023/04/28 08:51:42;;;;;;;6.07;5.07;;;15.80;95.30;;;;;;6141747;23;20361;-74
2023/04/28 08:54:09;;;;;;;10.50;6.80;;;15.70;96.90;;;;;;6116215;23;20515;-75
2023/04/28 08:56:35;;;;;;;6.67;5.80;;;15.70;97.40;;;;;;6140405;23;20494;-75
2023/04/28 08:59:05;;;;;;;9.80;6.73;;;15.90;97.90;;;;;;6112900;23;20404;-75
2023/04/28 09:01:31;;;;;;;8.83;7.50;;;16.00;97.60;;;;;;6139632;23;20156;-73
2023/04/28 09:04:01;;;;;;;8.07;7.27;;;16.10;99.20;;;;;;6115720;23;20459;-74
2023/04/28 09:06:30;;;;;;;6.10;5.50;;;16.20;99.60;;;;;;6145813;23;20368;-76
2023/04/28 09:08:56;;;;;;;6.70;5.70;;;16.30;99.90;;;;;;6115907;23;20411;-75
2023/04/28 09:11:22;;;;;;;5.80;4.80;;;16.10;99.90;;;;;;6115181;23;20415;-74
2023/04/28 09:13:48;;;;;;;5.70;4.63;;;16.00;99.90;;;;;;6113796;23;20132;-76
2023/04/28 09:16:13;;;;;;;5.70;4.40;;;15.80;99.90;;;;;;6115294;23;20168;-76
2023/04/28 09:18:39;;;;;;;7.97;7.27;;;15.70;99.90;;;;;;6113438;23;20167;-73
2023/04/28 09:21:07;;;;;;;10.70;7.27;;;15.50;99.90;;;;;;6090186;23;20136;-75
2023/04/28 09:23:33;;;;;;;7.40;6.70;;;15.40;99.90;;;;;;6141004;23;20367;-74
2023/04/28 09:26:01;;;;;;;8.37;5.90;;;15.30;99.90;;;;;;6141676;23;20360;-74
2023/04/28 09:28:27;;;;;;;5.13;4.60;;;15.20;99.90;;;;;;6116498;23;20678;-76
2023/04/28 09:30:53;;;;;;;7.13;5.10;;;15.10;99.90;;;;;;6092914;23;20407;-73
2023/04/28 09:33:20;;;;;;;7.27;5.10;;;15.00;99.90;;;;;;6118318;23;20393;-76
2023/04/28 09:35:47;;;;;;;6.10;5.37;;;15.00;99.90;;;;;;6141027;23;20410;-75
2023/04/28 09:38:13;;;;;;;9.10;6.20;;;15.00;99.90;;;;;;6112556;23;20780;-74
2023/04/28 09:40:54;;;;;;;6.07;5.47;;;15.10;99.90;;;;;;6139592;23;20434;-76
2023/04/28 09:43:30;;;;;;;4.77;4.27;;;15.20;99.90;;;;;;6146872;23;20366;-77
2023/04/28 09:45:58;;;;;;;8.50;7.60;;;15.40;99.90;;;;;;6116728;23;20666;-77
2023/04/28 09:48:35;;;;;;;11.70;9.17;;;15.60;99.90;;;;;;6115108;23;20458;-75
2023/04/28 09:51:04;;;;;;;6.50;5.90;;;15.60;99.90;;;;;;6140260;23;20433;-73
2023/04/28 09:53:31;;;;;;;6.67;6.00;;;15.50;99.90;;;;;;6119950;23;20378;-76
2023/04/28 09:55:58;;;;;;;11.97;8.23;;;15.40;99.90;;;;;;6142044;23;20414;-74
2023/04/28 09:58:26;;;;;;;11.70;8.97;;;15.30;99.90;;;;;;6120619;23;20363;-75
2023/04/28 10:00:56;;;;;;;5.60;5.10;;;15.10;99.90;;;;;;6094701;23;20438;-74
2023/04/28 10:03:24;;;;;;;10.30;7.80;;;15.10;99.90;;;;;;6143605;23;20367;-76
2023/04/28 10:05:52;;;;;;;6.90;5.83;;;15.10;99.90;;;;;;6118128;23;20451;-74
2023/04/28 10:08:19;;;;;;;8.00;7.23;;;15.10;99.90;;;;;;6141451;23;20435;-75
2023/04/28 10:10:47;;;;;;;9.30;6.67;;;15.00;99.90;;;;;;6116535;23;20738;-74
2023/04/28 10:13:15;;;;;;;6.10;4.93;;;15.00;99.90;;;;;;6117173;23;20372;-74
2023/04/28 10:15:42;;;;;;;7.00;5.97;;;14.90;99.90;;;;;;6118725;23;20403;-76
2023/04/28 10:18:08;;;;;;;7.50;6.50;;;15.00;99.90;;;;;;6141741;23;20686;-75
2023/04/28 10:20:34;;;;;;;5.30;4.80;;;15.00;99.90;;;;;;6145095;23;20416;-77
2023/04/28 10:23:30;;;;;;;6.67;5.97;;;15.00;99.90;;;;;;6119151;23;20478;-76
2023/04/28 10:25:58;;;;;;;6.00;5.37;;;15.20;99.90;;;;;;6142192;23;20592;-75
2023/04/28 10:28:25;;;;;;;7.77;5.80;;;15.40;99.90;;;;;;6097412;23;20459;-78
2023/04/28 10:31:11;;;;;;;7.70;5.53;;;15.60;99.90;;;;;;6093759;23;20424;-75
2023/04/28 10:33:38;;;;;;;5.30;4.80;;;15.90;99.90;;;;;;6145712;23;20372;-77
2023/04/28 10:36:05;;;;;;;5.20;4.63;;;16.20;99.90;;;;;;6146503;23;20403;-76
2023/04/28 10:38:31;;;;;;;6.70;5.40;;;16.40;99.90;;;;;;6117273;23;20391;-75
2023/04/28 10:41:01;;;;;;;8.93;8.00;;;16.60;99.90;;;;;;6121013;23;20427;-77
2023/04/28 10:43:38;;;;;;;6.10;5.50;;;16.90;99.90;;;;;;6143264;23;20745;-76
2023/04/28 10:46:05;;;;;;;5.23;4.37;;;17.10;99.90;;;;;;6119664;23;20367;-77
2023/04/28 10:48:37;;;;;;;7.30;6.60;;;17.30;99.90;;;;;;6096002;23;20379;-77
2023/04/28 10:51:06;;;;;;;8.23;7.13;;;17.40;99.90;;;;;;6097898;23;20416;-75
2023/04/28 10:53:44;;;;;;;5.33;4.30;;;17.30;99.90;;;;;;6144917;23;20419;-77
2023/04/28 10:56:18;;;;;;;5.43;4.93;;;17.30;99.90;;;;;;6117916;23;20438;-75
2023/04/28 10:58:45;;;;;;;6.83;5.50;;;17.40;99.90;;;;;;6117171;23;20571;-77
2023/04/28 11:01:20;;;;;;;7.57;6.77;;;17.30;99.90;;;;;;6119335;23;20363;-77
2023/04/28 11:03:49;;;;;;;7.17;6.40;;;17.30;99.90;;;;;;6097912;23;20520;-76
2023/04/28 11:06:28;;;;;;;5.20;4.70;;;17.30;99.90;;;;;;6147048;23;20453;-76
2023/04/28 11:09:18;;;;;;;10.83;7.40;;;17.50;99.90;;;;;;6121644;23;20469;-76
2023/04/28 11:11:54;;;;;;;7.80;7.00;;;17.70;99.90;;;;;;6094509;23;20389;-77
2023/04/28 11:14:20;;;;;;;9.13;7.40;;;17.90;99.90;;;;;;6147305;23;20383;-76
2023/04/28 11:16:53;;;;;;;5.90;5.40;;;18.00;99.90;;;;;;6097163;23;20423;-77
2023/04/28 11:19:21;;;;;;;6.97;6.00;;;18.20;99.90;;;;;;6096964;23;20177;-76
2023/04/28 11:21:47;;;;;;;7.30;6.60;;;18.60;99.90;;;;;;6119403;23;20373;-76
2023/04/28 11:24:13;;;;;;;4.93;4.40;;;18.80;99.90;;;;;;6119674;23;20371;-77
2023/04/28 11:26:40;;;;;;;4.50;4.10;;;18.90;99.90;;;;;;6120228;23;20361;-77
2023/04/28 11:29:06;;;;;;;8.00;6.20;;;19.00;99.90;;;;;;6120511;23;20409;-77
2023/04/28 11:31:32;;;;;;;7.17;6.47;;;19.10;99.90;;;;;;6096719;23;20377;-77
2023/04/28 11:34:13;;;;;;;6.83;4.70;;;19.10;99.90;;;;;;6147067;23;20431;-76
2023/04/28 11:36:39;;;;;;;5.03;4.30;;;19.30;99.90;;;;;;6095703;23;20186;-78
2023/04/28 11:39:07;;;;;;;5.30;4.10;;;19.20;99.90;;;;;;6122398;23;20422;-77
2023/04/28 11:41:38;;;;;;;6.63;4.60;;;19.20;99.90;;;;;;6115022;23;20428;-76
2023/04/28 11:44:18;;;;;;;7.13;5.90;;;19.20;99.90;;;;;;6069361;23;20383;-76
2023/04/28 11:46:49;;;;;;;7.87;7.13;;;19.00;99.90;;;;;;6093185;23;20382;-77
2023/04/28 11:49:15;;;;;;;6.83;6.17;;;19.20;99.90;;;;;;6121466;23;20403;-76
2023/04/28 11:51:42;;;;;;;10.57;6.63;;;19.20;99.90;;;;;;6096248;23;20372;-77
2023/04/28 11:54:10;;;;;;;5.10;4.10;;;19.10;99.90;;;;;;6113939;23;20459;-76
2023/04/28 11:56:41;;;;;;;4.80;4.40;;;19.20;99.90;;;;;;6090484;23;20422;-77
2023/04/28 11:59:11;;;;;;;4.70;3.53;;;19.40;99.90;;;;;;6091899;23;20432;-77
2023/04/28 12:01:47;;;;;;;5.03;4.20;;;19.50;99.90;;;;;;6116548;23;20388;-77
2023/04/28 12:04:13;;;;;;;6.77;6.13;;;19.60;99.90;;;;;;6118360;23;20378;-77
2023/04/28 12:06:40;;;;;;;4.50;4.10;;;19.80;99.90;;;;;;6089978;23;20447;-77
2023/04/28 12:09:20;;;;;;;3.47;3.17;;;20.10;99.90;;;;;;6090371;23;20423;-77
2023/04/28 12:11:56;;;;;;;6.23;5.63;;;20.50;99.90;;;;;;6064383;23;20384;-76
2023/04/28 12:14:23;;;;;;;4.33;3.93;;;20.70;97.60;;;;;;6092793;23;20384;-77
2023/04/28 12:16:49;;;;;;;5.37;4.83;;;20.70;96.70;;;;;;6091024;23;20412;-76
2023/04/28 12:19:17;;;;;;;5.50;4.83;;;20.70;96.50;;;;;;6090243;23;20396;-76
2023/04/28 12:21:43;;;;;;;6.40;5.13;;;20.60;96.30;;;;;;6113834;23;20441;-75
2023/04/28 12:24:20;;;;;;;5.03;4.50;;;20.80;96.20;;;;;;6089851;23;20384;-77
2023/04/28 12:26:47;;;;;;;3.93;3.53;;;21.00;94.90;;;;;;6118602;23;20373;-76
2023/04/28 12:29:36;;;;;;;4.47;4.00;;;21.10;95.20;;;;;;6092858;23;20401;-76
2023/04/28 12:32:03;;;;;;;6.63;4.80;;;21.00;94.10;;;;;;6115743;23;20432;-76
2023/04/28 12:34:30;;;;;;;9.13;6.80;;;21.20;94.50;;;;;;6066926;23;20388;-76
2023/04/28 12:36:55;;;;;;;6.80;6.23;;;21.60;91.30;;;;;;6094071;23;20412;-77
2023/04/28 12:39:22;;;;;;;8.43;7.03;;;21.40;91.00;;;;;;6117491;23;20399;-76
2023/04/28 12:41:47;;;;;;;7.67;6.97;;;21.30;90.90;;;;;;6071256;23;20164;-77
2023/04/28 12:44:14;;;;;;;6.60;5.93;;;21.20;90.80;;;;;;6118492;23;20371;-77
2023/04/28 12:46:40;;;;;;;6.83;6.20;;;20.90;92.30;;;;;;6119287;23;20161;-77